sensor_id;sensor_type;location;lat;lon;timestamp;P1;durP1;ratioP1;P2;durP2;ratioP2
9874;SDS011;4976;46.786;7.632;2022-08-19T08:54:29;9.03;;;8.20;;
9874;SDS011;4976;46.786;7.632;2022-08-19T08:58:16;8.60;;;7.70;;
9874;SDS011;4976;46.786;7.632;2022-08-19T09:00:52;10.23;;;7.43;;
9874;SDS011;4976;46.786;7.632;2022-08-19T09:03:21;9.00;;;8.10;;
9874;SDS011;4976;46.786;7.632;2022-08-19T09:06:11;8.23;;;7.43;;
9874;SDS011;4976;46.786;7.632;2022-08-19T09:08:54;8.17;;;7.43;;
9874;SDS011;4976;46.786;7.632;2022-08-19T09:11:44;7.60;;;6.90;;
9874;SDS011;4976;46.786;7.632;2022-08-19T09:14:30;7.60;;;6.90;;
9874;SDS011;4976;46.786;7.632;2022-08-19T09:17:22;7.27;;;6.57;;
9874;SDS011;4976;46.786;7.632;2022-08-19T09:20:19;6.73;;;6.13;;
9874;SDS011;4976;46.786;7.632;2022-08-19T09:23:00;7.20;;;6.37;;
9874;SDS011;4976;46.786;7.632;2022-08-19T09:28:26;7.73;;;7.03;;
9874;SDS011;4976;46.786;7.632;2022-08-19T09:30:59;6.77;;;6.17;;
9874;SDS011;4976;46.786;7.632;2022-08-19T09:33:31;6.90;;;6.30;;
9874;SDS011;4976;46.786;7.632;2022-08-19T09:36:14;7.40;;;6.70;;
9874;SDS011;4976;46.786;7.632;2022-08-19T09:38:59;7.87;;;6.87;;
9874;SDS011;4976;46.786;7.632;2022-08-19T09:41:41;7.47;;;6.77;;
9874;SDS011;4976;46.786;7.632;2022-08-19T09:44:41;6.37;;;5.77;;
9874;SDS011;4976;46.786;7.632;2022-08-19T09:47:25;9.27;;;6.30;;
9874;SDS011;4976;46.786;7.632;2022-08-19T09:49:56;6.80;;;6.20;;
9874;SDS011;4976;46.786;7.632;2022-08-19T09:52:39;6.40;;;5.83;;
9874;SDS011;4976;46.786;7.632;2022-08-19T09:55:07;6.23;;;5.63;;
9874;SDS011;4976;46.786;7.632;2022-08-19T09:57:36;7.07;;;5.10;;
9874;SDS011;4976;46.786;7.632;2022-08-19T10:00:06;6.07;;;5.47;;
9874;SDS011;4976;46.786;7.632;2022-08-19T10:02:35;5.47;;;4.97;;
9874;SDS011;4976;46.786;7.632;2022-08-19T10:05:02;5.63;;;5.13;;
9874;SDS011;4976;46.786;7.632;2022-08-19T10:07:47;5.10;;;4.70;;
9874;SDS011;4976;46.786;7.632;2022-08-19T10:10:15;5.70;;;5.20;;
9874;SDS011;4976;46.786;7.632;2022-08-19T10:12:42;6.10;;;5.60;;
9874;SDS011;4976;46.786;7.632;2022-08-19T10:15:14;5.30;;;4.80;;
9874;SDS011;4976;46.786;7.632;2022-08-19T10:17:42;6.00;;;5.50;;
9874;SDS011;4976;46.786;7.632;2022-08-19T10:20:09;5.87;;;5.30;;
9874;SDS011;4976;46.786;7.632;2022-08-19T10:22:37;5.83;;;5.33;;
9874;SDS011;4976;46.786;7.632;2022-08-19T10:25:05;5.10;;;4.60;;
9874;SDS011;4976;46.786;7.632;2022-08-19T10:27:33;5.53;;;5.07;;
9874;SDS011;4976;46.786;7.632;2022-08-19T10:30:00;5.10;;;4.70;;
9874;SDS011;4976;46.786;7.632;2022-08-19T10:32:29;5.50;;;5.00;;
9874;SDS011;4976;46.786;7.632;2022-08-19T10:34:56;5.63;;;5.13;;
9874;SDS011;4976;46.786;7.632;2022-08-19T10:37:23;4.97;;;4.57;;
9874;SDS011;4976;46.786;7.632;2022-08-19T10:39:50;5.73;;;5.23;;
9874;SDS011;4976;46.786;7.632;2022-08-19T10:42:18;6.50;;;5.80;;
9874;SDS011;4976;46.786;7.632;2022-08-19T10:44:46;6.57;;;5.97;;
9874;SDS011;4976;46.786;7.632;2022-08-19T10:47:13;6.00;;;5.50;;
9874;SDS011;4976;46.786;7.632;2022-08-19T10:49:42;6.23;;;5.63;;
9874;SDS011;4976;46.786;7.632;2022-08-19T10:52:26;5.57;;;5.07;;
9874;SDS011;4976;46.786;7.632;2022-08-19T10:55:03;5.77;;;5.27;;
9874;SDS011;4976;46.786;7.632;2022-08-19T10:57:48;4.90;;;4.50;;
9874;SDS011;4976;46.786;7.632;2022-08-19T11:00:17;5.47;;;4.97;;
9874;SDS011;4976;46.786;7.632;2022-08-19T11:02:45;5.77;;;5.27;;
9874;SDS011;4976;46.786;7.632;2022-08-19T11:05:14;5.07;;;4.63;;
9874;SDS011;4976;46.786;7.632;2022-08-19T11:07:42;5.27;;;4.77;;
9874;SDS011;4976;46.786;7.632;2022-08-19T11:10:11;5.17;;;4.70;;
9874;SDS011;4976;46.786;7.632;2022-08-19T11:12:44;4.97;;;4.57;;
9874;SDS011;4976;46.786;7.632;2022-08-19T11:15:12;4.93;;;4.30;;
9874;SDS011;4976;46.786;7.632;2022-08-19T11:17:39;5.00;;;4.60;;
9874;SDS011;4976;46.786;7.632;2022-08-19T11:20:09;4.53;;;4.23;;
9874;SDS011;4976;46.786;7.632;2022-08-19T11:22:38;5.23;;;4.13;;
9874;SDS011;4976;46.786;7.632;2022-08-19T11:25:07;5.77;;;5.17;;
9874;SDS011;4976;46.786;7.632;2022-08-19T11:27:37;5.00;;;4.50;;
9874;SDS011;4976;46.786;7.632;2022-08-19T11:30:07;5.30;;;4.80;;
9874;SDS011;4976;46.786;7.632;2022-08-19T11:32:35;5.37;;;4.97;;
9874;SDS011;4976;46.786;7.632;2022-08-19T11:35:03;5.17;;;4.77;;
9874;SDS011;4976;46.786;7.632;2022-08-19T11:37:30;5.50;;;5.00;;
9874;SDS011;4976;46.786;7.632;2022-08-19T11:40:05;5.40;;;4.90;;
9874;SDS011;4976;46.786;7.632;2022-08-19T11:42:33;5.73;;;5.23;;
9874;SDS011;4976;46.786;7.632;2022-08-19T11:45:18;6.00;;;5.50;;
9874;SDS011;4976;46.786;7.632;2022-08-19T11:47:45;5.07;;;4.67;;
9874;SDS011;4976;46.786;7.632;2022-08-19T11:50:12;4.77;;;4.37;;
9874;SDS011;4976;46.786;7.632;2022-08-19T11:52:40;5.10;;;4.67;;
9874;SDS011;4976;46.786;7.632;2022-08-19T11:55:10;4.40;;;4.10;;
9874;SDS011;4976;46.786;7.632;2022-08-19T11:57:39;4.70;;;4.30;;
9874;SDS011;4976;46.786;7.632;2022-08-19T12:00:08;5.20;;;4.80;;
9874;SDS011;4976;46.786;7.632;2022-08-19T12:02:37;4.80;;;4.40;;
9874;SDS011;4976;46.786;7.632;2022-08-19T12:05:05;4.63;;;4.23;;
9874;SDS011;4976;46.786;7.632;2022-08-19T12:07:32;4.40;;;4.03;;
9874;SDS011;4976;46.786;7.632;2022-08-19T12:10:00;5.87;;;4.07;;
9874;SDS011;4976;46.786;7.632;2022-08-19T12:12:29;4.63;;;4.23;;
9874;SDS011;4976;46.786;7.632;2022-08-19T12:14:56;4.70;;;4.30;;
9874;SDS011;4976;46.786;7.632;2022-08-19T12:17:24;4.95;;;4.07;;
9874;SDS011;4976;46.786;7.632;2022-08-19T12:19:51;4.30;;;3.93;;
9874;SDS011;4976;46.786;7.632;2022-08-19T12:22:19;5.00;;;4.60;;
9874;SDS011;4976;46.786;7.632;2022-08-19T12:24:46;4.73;;;4.33;;
9874;SDS011;4976;46.786;7.632;2022-08-19T12:27:15;5.63;;;5.13;;
9874;SDS011;4976;46.786;7.632;2022-08-19T12:29:44;6.03;;;5.38;;
9874;SDS011;4976;46.786;7.632;2022-08-19T12:32:11;5.47;;;5.07;;
9874;SDS011;4976;46.786;7.632;2022-08-19T12:34:38;6.55;;;5.85;;
9874;SDS011;4976;46.786;7.632;2022-08-19T12:37:06;6.65;;;6.05;;
9874;SDS011;4976;46.786;7.632;2022-08-19T12:39:35;5.72;;;5.22;;
9874;SDS011;4976;46.786;7.632;2022-08-19T12:42:03;6.28;;;5.68;;
9874;SDS011;4976;46.786;7.632;2022-08-19T12:44:32;6.28;;;5.78;;
9874;SDS011;4976;46.786;7.632;2022-08-19T12:47:00;6.33;;;5.77;;
9874;SDS011;4976;46.786;7.632;2022-08-19T12:49:29;6.60;;;6.00;;
9874;SDS011;4976;46.786;7.632;2022-08-19T12:51:58;6.73;;;6.13;;
9874;SDS011;4976;46.786;7.632;2022-08-19T12:54:26;5.73;;;5.20;;
9874;SDS011;4976;46.786;7.632;2022-08-19T12:56:55;6.87;;;6.10;;
9874;SDS011;4976;46.786;7.632;2022-08-19T12:59:23;6.40;;;5.80;;
9874;SDS011;4976;46.786;7.632;2022-08-19T13:01:50;9.63;;;6.20;;
9874;SDS011;4976;46.786;7.632;2022-08-19T13:04:19;7.63;;;5.60;;
9874;SDS011;4976;46.786;7.632;2022-08-19T13:06:46;6.47;;;5.87;;
9874;SDS011;4976;46.786;7.632;2022-08-19T13:09:13;6.07;;;5.40;;
9874;SDS011;4976;46.786;7.632;2022-08-19T13:11:40;5.00;;;4.50;;
9874;SDS011;4976;46.786;7.632;2022-08-19T13:14:08;3.80;;;3.47;;
9874;SDS011;4976;46.786;7.632;2022-08-19T13:16:36;3.60;;;3.30;;
9874;SDS011;4976;46.786;7.632;2022-08-19T13:19:04;3.63;;;3.33;;
9874;SDS011;4976;46.786;7.632;2022-08-19T13:21:33;3.63;;;3.33;;
9874;SDS011;4976;46.786;7.632;2022-08-19T13:24:01;3.80;;;3.40;;
9874;SDS011;4976;46.786;7.632;2022-08-19T13:26:28;4.20;;;3.63;;
9874;SDS011;4976;46.786;7.632;2022-08-19T13:28:56;4.33;;;3.60;;
9874;SDS011;4976;46.786;7.632;2022-08-19T13:31:40;3.80;;;3.50;;
9874;SDS011;4976;46.786;7.632;2022-08-19T13:34:26;4.80;;;3.70;;
9874;SDS011;4976;46.786;7.632;2022-08-19T13:36:57;3.97;;;3.67;;
9874;SDS011;4976;46.786;7.632;2022-08-19T13:39:25;4.50;;;4.10;;
9874;SDS011;4976;46.786;7.632;2022-08-19T13:41:52;4.33;;;3.80;;
9874;SDS011;4976;46.786;7.632;2022-08-19T13:44:19;4.70;;;4.30;;
9874;SDS011;4976;46.786;7.632;2022-08-19T13:46:47;4.60;;;4.20;;
9874;SDS011;4976;46.786;7.632;2022-08-19T13:49:15;4.77;;;4.37;;
9874;SDS011;4976;46.786;7.632;2022-08-19T13:51:42;4.10;;;3.70;;
9874;SDS011;4976;46.786;7.632;2022-08-19T13:54:11;3.67;;;3.37;;
9874;SDS011;4976;46.786;7.632;2022-08-19T13:56:41;3.47;;;2.60;;
9874;SDS011;4976;46.786;7.632;2022-08-19T13:59:10;2.43;;;2.23;;
9874;SDS011;4976;46.786;7.632;2022-08-19T14:01:37;2.67;;;2.47;;
9874;SDS011;4976;46.786;7.632;2022-08-19T14:04:05;3.90;;;2.57;;
9874;SDS011;4976;46.786;7.632;2022-08-19T14:06:33;3.00;;;2.70;;
9874;SDS011;4976;46.786;7.632;2022-08-19T14:09:00;2.73;;;2.50;;
9874;SDS011;4976;46.786;7.632;2022-08-19T14:11:29;2.77;;;2.57;;
9874;SDS011;4976;46.786;7.632;2022-08-19T14:13:56;2.67;;;2.47;;
9874;SDS011;4976;46.786;7.632;2022-08-19T14:16:24;3.53;;;2.87;;
9874;SDS011;4976;46.786;7.632;2022-08-19T14:18:52;3.60;;;2.60;;
9874;SDS011;4976;46.786;7.632;2022-08-19T14:21:20;3.00;;;2.80;;
9874;SDS011;4976;46.786;7.632;2022-08-19T14:23:50;3.00;;;2.77;;
9874;SDS011;4976;46.786;7.632;2022-08-19T14:26:18;3.30;;;3.00;;
9874;SDS011;4976;46.786;7.632;2022-08-19T14:28:47;3.07;;;2.77;;
9874;SDS011;4976;46.786;7.632;2022-08-19T14:31:15;3.60;;;3.30;;
9874;SDS011;4976;46.786;7.632;2022-08-19T14:33:45;3.80;;;3.40;;
9874;SDS011;4976;46.786;7.632;2022-08-19T14:36:12;4.30;;;3.17;;
9874;SDS011;4976;46.786;7.632;2022-08-19T14:38:39;4.00;;;3.47;;
9874;SDS011;4976;46.786;7.632;2022-08-19T14:41:11;4.13;;;3.83;;
9874;SDS011;4976;46.786;7.632;2022-08-19T14:43:41;6.60;;;4.10;;
9874;SDS011;4976;46.786;7.632;2022-08-19T14:46:12;4.03;;;3.73;;
9874;SDS011;4976;46.786;7.632;2022-08-19T14:48:40;4.20;;;3.80;;
9874;SDS011;4976;46.786;7.632;2022-08-19T14:51:07;5.30;;;4.30;;
9874;SDS011;4976;46.786;7.632;2022-08-19T14:53:35;4.27;;;3.87;;
9874;SDS011;4976;46.786;7.632;2022-08-19T14:56:07;5.00;;;4.53;;
9874;SDS011;4976;46.786;7.632;2022-08-19T14:58:36;4.83;;;4.30;;
9874;SDS011;4976;46.786;7.632;2022-08-19T15:01:03;5.53;;;5.03;;
9874;SDS011;4976;46.786;7.632;2022-08-19T15:03:32;5.30;;;4.90;;
9874;SDS011;4976;46.786;7.632;2022-08-19T15:05:59;5.85;;;5.20;;
9874;SDS011;4976;46.786;7.632;2022-08-19T15:08:28;5.07;;;4.57;;
9874;SDS011;4976;46.786;7.632;2022-08-19T15:10:58;5.43;;;4.93;;
9874;SDS011;4976;46.786;7.632;2022-08-19T15:13:27;5.10;;;4.60;;
9874;SDS011;4976;46.786;7.632;2022-08-19T15:15:55;4.80;;;4.40;;
9874;SDS011;4976;46.786;7.632;2022-08-19T15:18:24;5.23;;;4.73;;
9874;SDS011;4976;46.786;7.632;2022-08-19T15:20:52;5.20;;;4.63;;
9874;SDS011;4976;46.786;7.632;2022-08-19T15:23:20;6.13;;;5.30;;
9874;SDS011;4976;46.786;7.632;2022-08-19T15:25:48;5.50;;;5.00;;
9874;SDS011;4976;46.786;7.632;2022-08-19T15:28:20;5.60;;;5.10;;
9874;SDS011;4976;46.786;7.632;2022-08-19T15:30:47;6.60;;;5.30;;
9874;SDS011;4976;46.786;7.632;2022-08-19T15:33:15;5.83;;;5.23;;
9874;SDS011;4976;46.786;7.632;2022-08-19T15:35:45;6.30;;;5.70;;
9874;SDS011;4976;46.786;7.632;2022-08-19T15:38:16;6.20;;;5.60;;
9874;SDS011;4976;46.786;7.632;2022-08-19T15:40:46;5.90;;;5.30;;
9874;SDS011;4976;46.786;7.632;2022-08-19T15:43:14;6.30;;;5.70;;
9874;SDS011;4976;46.786;7.632;2022-08-19T15:45:41;6.70;;;6.00;;
9874;SDS011;4976;46.786;7.632;2022-08-19T15:48:09;6.67;;;6.07;;
9874;SDS011;4976;46.786;7.632;2022-08-19T15:50:36;7.40;;;6.70;;
9874;SDS011;4976;46.786;7.632;2022-08-19T15:53:05;7.30;;;6.53;;
9874;SDS011;4976;46.786;7.632;2022-08-19T15:55:36;7.43;;;6.73;;
9874;SDS011;4976;46.786;7.632;2022-08-19T15:58:10;7.33;;;6.63;;
9874;SDS011;4976;46.786;7.632;2022-08-19T16:00:56;7.27;;;6.57;;
9874;SDS011;4976;46.786;7.632;2022-08-19T16:03:41;7.17;;;6.47;;
9874;SDS011;4976;46.786;7.632;2022-08-19T16:06:25;7.93;;;7.13;;
9874;SDS011;4976;46.786;7.632;2022-08-19T16:08:53;7.80;;;6.83;;
9874;SDS011;4976;46.786;7.632;2022-08-19T16:11:23;10.03;;;9.03;;
9874;SDS011;4976;46.786;7.632;2022-08-19T16:13:53;9.40;;;8.60;;
9874;SDS011;4976;46.786;7.632;2022-08-19T16:16:23;9.90;;;8.93;;
9874;SDS011;4976;46.786;7.632;2022-08-19T16:18:52;10.63;;;9.57;;
9874;SDS011;4976;46.786;7.632;2022-08-19T16:21:25;10.80;;;9.37;;
9874;SDS011;4976;46.786;7.632;2022-08-19T16:23:58;12.50;;;10.67;;
9874;SDS011;4976;46.786;7.632;2022-08-19T16:26:28;11.53;;;10.33;;
9874;SDS011;4976;46.786;7.632;2022-08-19T16:28:56;11.03;;;9.93;;
9874;SDS011;4976;46.786;7.632;2022-08-19T16:31:24;12.30;;;9.17;;
9874;SDS011;4976;46.786;7.632;2022-08-19T16:33:53;8.67;;;7.80;;
9874;SDS011;4976;46.786;7.632;2022-08-19T16:36:20;9.20;;;7.87;;
9874;SDS011;4976;46.786;7.632;2022-08-19T16:38:51;10.03;;;8.97;;
9874;SDS011;4976;46.786;7.632;2022-08-19T16:41:31;7.67;;;6.97;;
9874;SDS011;4976;46.786;7.632;2022-08-19T16:44:11;7.70;;;6.53;;
9874;SDS011;4976;46.786;7.632;2022-08-19T16:46:44;8.40;;;6.87;;
9874;SDS011;4976;46.786;7.632;2022-08-19T16:49:14;6.53;;;5.90;;
9874;SDS011;4976;46.786;7.632;2022-08-19T16:51:46;7.67;;;5.87;;
9874;SDS011;4976;46.786;7.632;2022-08-19T16:54:15;8.30;;;7.03;;
9874;SDS011;4976;46.786;7.632;2022-08-19T16:56:44;6.47;;;5.80;;
9874;SDS011;4976;46.786;7.632;2022-08-19T16:59:13;7.60;;;6.80;;
9874;SDS011;4976;46.786;7.632;2022-08-19T17:01:41;8.00;;;7.20;;
9874;SDS011;4976;46.786;7.632;2022-08-19T17:04:08;8.50;;;7.70;;
9874;SDS011;4976;46.786;7.632;2022-08-19T17:06:36;8.23;;;7.43;;
9874;SDS011;4976;46.786;7.632;2022-08-19T17:09:04;8.17;;;7.40;;
9874;SDS011;4976;46.786;7.632;2022-08-19T17:11:33;9.10;;;8.10;;
9874;SDS011;4976;46.786;7.632;2022-08-19T17:14:03;12.43;;;8.67;;
9874;SDS011;4976;46.786;7.632;2022-08-19T17:16:32;9.83;;;8.40;;
9874;SDS011;4976;46.786;7.632;2022-08-19T17:19:02;10.10;;;9.10;;
9874;SDS011;4976;46.786;7.632;2022-08-19T17:21:32;10.20;;;9.20;;
9874;SDS011;4976;46.786;7.632;2022-08-19T17:24:02;10.03;;;9.03;;
9874;SDS011;4976;46.786;7.632;2022-08-19T17:26:31;12.27;;;9.93;;
9874;SDS011;4976;46.786;7.632;2022-08-19T17:28:58;12.90;;;11.50;;
9874;SDS011;4976;46.786;7.632;2022-08-19T17:31:28;12.73;;;10.80;;
9874;SDS011;4976;46.786;7.632;2022-08-19T17:33:56;10.97;;;9.97;;
9874;SDS011;4976;46.786;7.632;2022-08-19T17:36:25;10.73;;;9.77;;
9874;SDS011;4976;46.786;7.632;2022-08-19T17:38:54;10.87;;;9.77;;
9874;SDS011;4976;46.786;7.632;2022-08-19T17:41:22;11.67;;;10.47;;
9874;SDS011;4976;46.786;7.632;2022-08-19T17:43:50;11.33;;;10.23;;
9874;SDS011;4976;46.786;7.632;2022-08-19T17:46:18;10.67;;;9.53;;
9874;SDS011;4976;46.786;7.632;2022-08-19T17:48:48;12.10;;;10.90;;
9874;SDS011;4976;46.786;7.632;2022-08-19T17:51:20;11.87;;;9.73;;
9874;SDS011;4976;46.786;7.632;2022-08-19T17:53:49;10.80;;;9.80;;
9874;SDS011;4976;46.786;7.632;2022-08-19T17:56:17;12.37;;;11.17;;
9874;SDS011;4976;46.786;7.632;2022-08-19T17:58:44;11.40;;;10.33;;
9874;SDS011;4976;46.786;7.632;2022-08-19T18:01:13;9.97;;;9.07;;
9874;SDS011;4976;46.786;7.632;2022-08-19T18:03:41;10.63;;;9.57;;
9874;SDS011;4976;46.786;7.632;2022-08-19T18:06:10;11.63;;;10.47;;
9874;SDS011;4976;46.786;7.632;2022-08-19T18:08:38;10.83;;;9.80;;
9874;SDS011;4976;46.786;7.632;2022-08-19T18:11:06;12.33;;;11.03;;
9874;SDS011;4976;46.786;7.632;2022-08-19T18:13:34;13.10;;;11.20;;
9874;SDS011;4976;46.786;7.632;2022-08-19T18:16:02;11.83;;;10.63;;
9874;SDS011;4976;46.786;7.632;2022-08-19T18:18:31;13.27;;;11.97;;
9874;SDS011;4976;46.786;7.632;2022-08-19T18:20:58;15.30;;;13.20;;
9874;SDS011;4976;46.786;7.632;2022-08-19T18:23:26;15.20;;;13.70;;
9874;SDS011;4976;46.786;7.632;2022-08-19T18:25:54;15.33;;;13.70;;
9874;SDS011;4976;46.786;7.632;2022-08-19T18:28:23;16.33;;;14.63;;
9874;SDS011;4976;46.786;7.632;2022-08-19T18:30:50;15.73;;;13.90;;
9874;SDS011;4976;46.786;7.632;2022-08-19T18:33:18;14.40;;;12.97;;
9874;SDS011;4976;46.786;7.632;2022-08-19T18:35:46;13.60;;;11.87;;
9874;SDS011;4976;46.786;7.632;2022-08-19T18:38:16;13.77;;;12.37;;
9874;SDS011;4976;46.786;7.632;2022-08-19T18:41:03;14.63;;;13.13;;
9874;SDS011;4976;46.786;7.632;2022-08-19T18:43:48;15.00;;;13.43;;
9874;SDS011;4976;46.786;7.632;2022-08-19T18:46:33;14.73;;;12.87;;
9874;SDS011;4976;46.786;7.632;2022-08-19T18:49:20;13.23;;;11.97;;
9874;SDS011;4976;46.786;7.632;2022-08-19T18:51:49;14.73;;;13.33;;
9874;SDS011;4976;46.786;7.632;2022-08-19T18:54:16;14.77;;;13.30;;
9874;SDS011;4976;46.786;7.632;2022-08-19T18:56:46;15.83;;;14.13;;
9874;SDS011;4976;46.786;7.632;2022-08-19T18:59:17;15.70;;;14.20;;
9874;SDS011;4976;46.786;7.632;2022-08-19T19:01:45;15.33;;;13.87;;
9874;SDS011;4976;46.786;7.632;2022-08-19T19:04:15;14.97;;;13.47;;
9874;SDS011;4976;46.786;7.632;2022-08-19T19:06:43;14.90;;;13.40;;
9874;SDS011;4976;46.786;7.632;2022-08-19T19:09:12;15.80;;;14.03;;
9874;SDS011;4976;46.786;7.632;2022-08-19T19:11:56;15.87;;;14.37;;
9874;SDS011;4976;46.786;7.632;2022-08-19T19:14:28;15.00;;;13.43;;
9874;SDS011;4976;46.786;7.632;2022-08-19T19:16:57;17.00;;;15.30;;
9874;SDS011;4976;46.786;7.632;2022-08-19T19:19:27;15.80;;;14.17;;
9874;SDS011;4976;46.786;7.632;2022-08-19T19:21:57;15.20;;;13.70;;
9874;SDS011;4976;46.786;7.632;2022-08-19T19:24:26;15.07;;;13.47;;
9874;SDS011;4976;46.786;7.632;2022-08-19T19:26:56;15.27;;;13.67;;
9874;SDS011;4976;46.786;7.632;2022-08-19T19:29:25;15.57;;;14.07;;
9874;SDS011;4976;46.786;7.632;2022-08-19T19:31:53;14.87;;;13.47;;
9874;SDS011;4976;46.786;7.632;2022-08-19T19:34:21;15.07;;;13.37;;
9874;SDS011;4976;46.786;7.632;2022-08-19T19:36:49;15.33;;;13.80;;
9874;SDS011;4976;46.786;7.632;2022-08-19T19:39:17;15.87;;;13.53;;
9874;SDS011;4976;46.786;7.632;2022-08-19T19:42:00;15.03;;;13.43;;
9874;SDS011;4976;46.786;7.632;2022-08-19T19:44:36;15.33;;;13.43;;
9874;SDS011;4976;46.786;7.632;2022-08-19T19:47:04;15.23;;;13.73;;
9874;SDS011;4976;46.786;7.632;2022-08-19T19:49:31;14.17;;;12.67;;
9874;SDS011;4976;46.786;7.632;2022-08-19T19:51:58;14.53;;;12.87;;
9874;SDS011;4976;46.786;7.632;2022-08-19T19:54:29;14.30;;;12.93;;
9874;SDS011;4976;46.786;7.632;2022-08-19T19:56:56;14.33;;;12.93;;
9874;SDS011;4976;46.786;7.632;2022-08-19T19:59:25;15.27;;;13.67;;
9874;SDS011;4976;46.786;7.632;2022-08-19T20:01:52;14.90;;;13.40;;
9874;SDS011;4976;46.786;7.632;2022-08-19T20:04:20;14.50;;;13.10;;
9874;SDS011;4976;46.786;7.632;2022-08-19T20:06:49;14.67;;;13.27;;
9874;SDS011;4976;46.786;7.632;2022-08-19T20:09:16;13.80;;;12.20;;
9874;SDS011;4976;46.786;7.632;2022-08-19T20:11:43;13.37;;;12.00;;
9874;SDS011;4976;46.786;7.632;2022-08-19T20:14:14;14.20;;;12.63;;
9874;SDS011;4976;46.786;7.632;2022-08-19T20:16:45;12.63;;;11.43;;
9874;SDS011;4976;46.786;7.632;2022-08-19T20:19:15;13.30;;;12.00;;
9874;SDS011;4976;46.786;7.632;2022-08-19T20:21:45;14.07;;;12.77;;
9874;SDS011;4976;46.786;7.632;2022-08-19T20:24:14;13.53;;;12.20;;
9874;SDS011;4976;46.786;7.632;2022-08-19T20:26:46;14.37;;;12.97;;
9874;SDS011;4976;46.786;7.632;2022-08-19T20:29:14;14.10;;;12.80;;
9874;SDS011;4976;46.786;7.632;2022-08-19T20:31:43;14.30;;;12.90;;
9874;SDS011;4976;46.786;7.632;2022-08-19T20:34:13;14.40;;;12.90;;
9874;SDS011;4976;46.786;7.632;2022-08-19T20:36:41;13.47;;;12.17;;
9874;SDS011;4976;46.786;7.632;2022-08-19T20:39:09;17.60;;;13.10;;
9874;SDS011;4976;46.786;7.632;2022-08-19T20:41:37;15.30;;;13.67;;
9874;SDS011;4976;46.786;7.632;2022-08-19T20:44:05;14.43;;;12.93;;
9874;SDS011;4976;46.786;7.632;2022-08-19T20:46:33;15.47;;;13.03;;
9874;SDS011;4976;46.786;7.632;2022-08-19T20:49:02;13.57;;;12.27;;
9874;SDS011;4976;46.786;7.632;2022-08-19T20:51:29;14.00;;;12.53;;
9874;SDS011;4976;46.786;7.632;2022-08-19T20:53:57;13.90;;;12.50;;
9874;SDS011;4976;46.786;7.632;2022-08-19T20:56:25;13.93;;;12.30;;
9874;SDS011;4976;46.786;7.632;2022-08-19T20:58:52;15.37;;;13.93;;
9874;SDS011;4976;46.786;7.632;2022-08-19T21:01:20;13.73;;;12.43;;
9874;SDS011;4976;46.786;7.632;2022-08-19T21:03:47;12.67;;;11.47;;
9874;SDS011;4976;46.786;7.632;2022-08-19T21:06:17;13.40;;;12.07;;
9874;SDS011;4976;46.786;7.632;2022-08-19T21:08:44;13.53;;;12.23;;
9874;SDS011;4976;46.786;7.632;2022-08-19T21:11:12;13.87;;;12.57;;
9874;SDS011;4976;46.786;7.632;2022-08-19T21:13:39;13.53;;;12.13;;
9874;SDS011;4976;46.786;7.632;2022-08-19T21:16:06;13.47;;;12.17;;
9874;SDS011;4976;46.786;7.632;2022-08-19T21:18:34;14.40;;;12.50;;
9874;SDS011;4976;46.786;7.632;2022-08-19T21:21:01;13.00;;;11.70;;
9874;SDS011;4976;46.786;7.632;2022-08-19T21:23:30;13.17;;;11.77;;
9874;SDS011;4976;46.786;7.632;2022-08-19T21:25:58;12.60;;;11.40;;
9874;SDS011;4976;46.786;7.632;2022-08-19T21:28:26;12.70;;;11.40;;
9874;SDS011;4976;46.786;7.632;2022-08-19T21:30:54;12.50;;;11.33;;
9874;SDS011;4976;46.786;7.632;2022-08-19T21:33:22;13.33;;;11.93;;
9874;SDS011;4976;46.786;7.632;2022-08-19T21:35:50;12.83;;;11.53;;
9874;SDS011;4976;46.786;7.632;2022-08-19T21:38:17;12.57;;;11.30;;
9874;SDS011;4976;46.786;7.632;2022-08-19T21:40:45;13.50;;;10.63;;
9874;SDS011;4976;46.786;7.632;2022-08-19T21:43:16;12.87;;;11.57;;
9874;SDS011;4976;46.786;7.632;2022-08-19T21:45:44;11.53;;;10.43;;
9874;SDS011;4976;46.786;7.632;2022-08-19T21:48:11;12.30;;;11.10;;
9874;SDS011;4976;46.786;7.632;2022-08-19T21:50:39;11.83;;;10.73;;
9874;SDS011;4976;46.786;7.632;2022-08-19T21:53:06;11.43;;;10.33;;
9874;SDS011;4976;46.786;7.632;2022-08-19T21:55:33;11.47;;;10.20;;
9874;SDS011;4976;46.786;7.632;2022-08-19T21:58:02;11.77;;;10.57;;
